sensor_id;sensor_type;location;lat;lon;timestamp;P1;durP1;ratioP1;P2;durP2;ratioP2
18449;SDS011;9354;50.194;7.690;2024-01-07T00:02:25;17.70;;;8.20;;
18449;SDS011;9354;50.194;7.690;2024-01-07T00:04:54;18.53;;;8.20;;
18449;SDS011;9354;50.194;7.690;2024-01-07T00:07:21;21.60;;;9.83;;
18449;SDS011;9354;50.194;7.690;2024-01-07T00:09:49;19.50;;;9.20;;
18449;SDS011;9354;50.194;7.690;2024-01-07T00:12:16;23.93;;;9.27;;
18449;SDS011;9354;50.194;7.690;2024-01-07T00:14:43;24.53;;;9.43;;
18449;SDS011;9354;50.194;7.690;2024-01-07T00:17:11;23.63;;;10.00;;
18449;SDS011;9354;50.194;7.690;2024-01-07T00:19:38;22.87;;;9.77;;
18449;SDS011;9354;50.194;7.690;2024-01-07T00:22:08;27.00;;;9.50;;
18449;SDS011;9354;50.194;7.690;2024-01-07T00:24:35;21.23;;;8.93;;
18449;SDS011;9354;50.194;7.690;2024-01-07T00:27:03;19.43;;;8.67;;
18449;SDS011;9354;50.194;7.690;2024-01-07T00:29:31;23.97;;;9.07;;
18449;SDS011;9354;50.194;7.690;2024-01-07T00:32:00;21.93;;;8.40;;
18449;SDS011;9354;50.194;7.690;2024-01-07T00:34:27;29.43;;;9.63;;
18449;SDS011;9354;50.194;7.690;2024-01-07T00:36:55;18.73;;;8.50;;
18449;SDS011;9354;50.194;7.690;2024-01-07T00:39:24;29.67;;;9.37;;
18449;SDS011;9354;50.194;7.690;2024-01-07T00:41:51;24.10;;;9.57;;
18449;SDS011;9354;50.194;7.690;2024-01-07T00:44:18;23.70;;;9.37;;
18449;SDS011;9354;50.194;7.690;2024-01-07T00:46:46;22.93;;;9.33;;
18449;SDS011;9354;50.194;7.690;2024-01-07T00:49:13;20.17;;;8.10;;
18449;SDS011;9354;50.194;7.690;2024-01-07T00:51:41;22.27;;;8.93;;
18449;SDS011;9354;50.194;7.690;2024-01-07T00:54:08;17.77;;;8.33;;
18449;SDS011;9354;50.194;7.690;2024-01-07T00:56:37;20.60;;;8.37;;
18449;SDS011;9354;50.194;7.690;2024-01-07T00:59:04;16.77;;;7.73;;
18449;SDS011;9354;50.194;7.690;2024-01-07T01:01:31;18.73;;;7.67;;
18449;SDS011;9354;50.194;7.690;2024-01-07T01:03:59;17.57;;;7.70;;
18449;SDS011;9354;50.194;7.690;2024-01-07T01:06:27;19.80;;;8.13;;
18449;SDS011;9354;50.194;7.690;2024-01-07T01:08:55;20.20;;;7.93;;
18449;SDS011;9354;50.194;7.690;2024-01-07T01:11:22;16.07;;;7.63;;
18449;SDS011;9354;50.194;7.690;2024-01-07T01:13:51;18.60;;;7.80;;
18449;SDS011;9354;50.194;7.690;2024-01-07T01:16:18;20.77;;;7.77;;
18449;SDS011;9354;50.194;7.690;2024-01-07T01:18:46;17.50;;;7.77;;
18449;SDS011;9354;50.194;7.690;2024-01-07T01:21:13;17.87;;;7.60;;
18449;SDS011;9354;50.194;7.690;2024-01-07T01:23:41;17.40;;;7.93;;
18449;SDS011;9354;50.194;7.690;2024-01-07T01:26:08;17.27;;;6.60;;
18449;SDS011;9354;50.194;7.690;2024-01-07T01:28:35;16.87;;;7.40;;
18449;SDS011;9354;50.194;7.690;2024-01-07T01:31:04;15.13;;;6.87;;
18449;SDS011;9354;50.194;7.690;2024-01-07T01:33:32;18.30;;;7.20;;
18449;SDS011;9354;50.194;7.690;2024-01-07T01:35:59;15.20;;;6.17;;
18449;SDS011;9354;50.194;7.690;2024-01-07T01:38:31;16.43;;;7.00;;
18449;SDS011;9354;50.194;7.690;2024-01-07T01:40:58;16.40;;;6.80;;
18449;SDS011;9354;50.194;7.690;2024-01-07T01:43:26;14.77;;;6.73;;
18449;SDS011;9354;50.194;7.690;2024-01-07T01:45:55;18.40;;;7.60;;
18449;SDS011;9354;50.194;7.690;2024-01-07T01:48:26;18.87;;;7.33;;
18449;SDS011;9354;50.194;7.690;2024-01-07T01:50:54;22.40;;;8.33;;
18449;SDS011;9354;50.194;7.690;2024-01-07T01:53:23;16.50;;;7.43;;
18449;SDS011;9354;50.194;7.690;2024-01-07T01:55:52;18.20;;;7.30;;
18449;SDS011;9354;50.194;7.690;2024-01-07T01:58:20;17.67;;;7.80;;
18449;SDS011;9354;50.194;7.690;2024-01-07T02:00:49;19.67;;;7.60;;
18449;SDS011;9354;50.194;7.690;2024-01-07T02:03:17;21.07;;;8.30;;
18449;SDS011;9354;50.194;7.690;2024-01-07T02:05:46;22.63;;;9.20;;
18449;SDS011;9354;50.194;7.690;2024-01-07T02:08:15;23.67;;;9.83;;
18449;SDS011;9354;50.194;7.690;2024-01-07T02:10:43;22.53;;;8.90;;
18449;SDS011;9354;50.194;7.690;2024-01-07T02:13:11;28.53;;;9.50;;
18449;SDS011;9354;50.194;7.690;2024-01-07T02:15:39;23.73;;;8.90;;
18449;SDS011;9354;50.194;7.690;2024-01-07T02:18:06;20.70;;;9.27;;
18449;SDS011;9354;50.194;7.690;2024-01-07T02:20:34;26.90;;;10.13;;
18449;SDS011;9354;50.194;7.690;2024-01-07T02:23:03;26.20;;;9.60;;
18449;SDS011;9354;50.194;7.690;2024-01-07T02:25:35;29.17;;;9.80;;
18449;SDS011;9354;50.194;7.690;2024-01-07T02:28:03;24.70;;;9.70;;
18449;SDS011;9354;50.194;7.690;2024-01-07T02:30:31;24.80;;;9.60;;
18449;SDS011;9354;50.194;7.690;2024-01-07T02:33:00;37.97;;;10.43;;
18449;SDS011;9354;50.194;7.690;2024-01-07T02:35:30;28.63;;;10.13;;
18449;SDS011;9354;50.194;7.690;2024-01-07T02:37:57;28.17;;;9.60;;
18449;SDS011;9354;50.194;7.690;2024-01-07T02:40:24;27.13;;;9.60;;
18449;SDS011;9354;50.194;7.690;2024-01-07T02:42:53;26.70;;;9.70;;
18449;SDS011;9354;50.194;7.690;2024-01-07T02:45:22;25.87;;;9.80;;
18449;SDS011;9354;50.194;7.690;2024-01-07T02:47:49;27.33;;;10.40;;
18449;SDS011;9354;50.194;7.690;2024-01-07T02:50:17;28.07;;;9.93;;
18449;SDS011;9354;50.194;7.690;2024-01-07T02:52:44;28.03;;;10.23;;
18449;SDS011;9354;50.194;7.690;2024-01-07T02:55:12;26.20;;;10.07;;
18449;SDS011;9354;50.194;7.690;2024-01-07T02:57:40;34.73;;;11.93;;
18449;SDS011;9354;50.194;7.690;2024-01-07T03:00:09;34.43;;;10.70;;
18449;SDS011;9354;50.194;7.690;2024-01-07T03:02:36;28.80;;;10.07;;
18449;SDS011;9354;50.194;7.690;2024-01-07T03:05:04;28.30;;;10.03;;
18449;SDS011;9354;50.194;7.690;2024-01-07T03:07:32;35.20;;;11.50;;
18449;SDS011;9354;50.194;7.690;2024-01-07T03:09:59;28.97;;;10.40;;
18449;SDS011;9354;50.194;7.690;2024-01-07T03:12:27;29.20;;;10.33;;
18449;SDS011;9354;50.194;7.690;2024-01-07T03:14:54;28.87;;;10.40;;
18449;SDS011;9354;50.194;7.690;2024-01-07T03:17:23;35.23;;;10.43;;
18449;SDS011;9354;50.194;7.690;2024-01-07T03:19:50;30.63;;;9.87;;
18449;SDS011;9354;50.194;7.690;2024-01-07T03:22:17;25.43;;;9.73;;
18449;SDS011;9354;50.194;7.690;2024-01-07T03:24:45;33.23;;;10.50;;
18449;SDS011;9354;50.194;7.690;2024-01-07T03:27:12;28.97;;;9.40;;
18449;SDS011;9354;50.194;7.690;2024-01-07T03:29:40;30.13;;;10.47;;
18449;SDS011;9354;50.194;7.690;2024-01-07T03:32:08;27.17;;;9.57;;
18449;SDS011;9354;50.194;7.690;2024-01-07T03:34:36;31.33;;;10.90;;
18449;SDS011;9354;50.194;7.690;2024-01-07T03:37:06;32.10;;;10.90;;
18449;SDS011;9354;50.194;7.690;2024-01-07T03:39:33;34.13;;;11.37;;
18449;SDS011;9354;50.194;7.690;2024-01-07T03:42:00;32.10;;;10.70;;
18449;SDS011;9354;50.194;7.690;2024-01-07T03:44:28;28.57;;;10.27;;
18449;SDS011;9354;50.194;7.690;2024-01-07T03:46:55;30.40;;;10.63;;
18449;SDS011;9354;50.194;7.690;2024-01-07T03:49:22;30.17;;;10.43;;
18449;SDS011;9354;50.194;7.690;2024-01-07T03:51:51;29.97;;;9.90;;
18449;SDS011;9354;50.194;7.690;2024-01-07T03:54:18;28.07;;;10.23;;
18449;SDS011;9354;50.194;7.690;2024-01-07T03:56:46;29.73;;;10.47;;
18449;SDS011;9354;50.194;7.690;2024-01-07T03:59:13;27.07;;;10.67;;
18449;SDS011;9354;50.194;7.690;2024-01-07T04:01:41;29.73;;;9.90;;
18449;SDS011;9354;50.194;7.690;2024-01-07T04:04:08;27.63;;;10.73;;
18449;SDS011;9354;50.194;7.690;2024-01-07T04:06:35;31.50;;;10.73;;
18449;SDS011;9354;50.194;7.690;2024-01-07T04:09:04;30.37;;;10.00;;
18449;SDS011;9354;50.194;7.690;2024-01-07T04:11:32;30.80;;;11.03;;
18449;SDS011;9354;50.194;7.690;2024-01-07T04:13:59;31.33;;;12.00;;
18449;SDS011;9354;50.194;7.690;2024-01-07T04:16:26;29.53;;;10.50;;
18449;SDS011;9354;50.194;7.690;2024-01-07T04:18:54;30.20;;;10.83;;
18449;SDS011;9354;50.194;7.690;2024-01-07T04:21:21;28.43;;;10.33;;
18449;SDS011;9354;50.194;7.690;2024-01-07T04:23:48;30.70;;;10.83;;
18449;SDS011;9354;50.194;7.690;2024-01-07T04:26:17;27.97;;;9.90;;
18449;SDS011;9354;50.194;7.690;2024-01-07T04:28:44;26.80;;;9.77;;
18449;SDS011;9354;50.194;7.690;2024-01-07T04:31:12;29.40;;;10.80;;
18449;SDS011;9354;50.194;7.690;2024-01-07T04:33:39;27.90;;;10.63;;
18449;SDS011;9354;50.194;7.690;2024-01-07T04:36:07;25.80;;;9.60;;
18449;SDS011;9354;50.194;7.690;2024-01-07T04:38:35;26.17;;;9.57;;
18449;SDS011;9354;50.194;7.690;2024-01-07T04:41:02;23.83;;;9.43;;
18449;SDS011;9354;50.194;7.690;2024-01-07T04:43:34;23.87;;;10.00;;
18449;SDS011;9354;50.194;7.690;2024-01-07T04:46:02;23.57;;;9.20;;
18449;SDS011;9354;50.194;7.690;2024-01-07T04:48:30;24.47;;;9.50;;
18449;SDS011;9354;50.194;7.690;2024-01-07T04:50:57;26.03;;;8.33;;
18449;SDS011;9354;50.194;7.690;2024-01-07T04:53:25;27.00;;;9.17;;
18449;SDS011;9354;50.194;7.690;2024-01-07T04:55:52;25.00;;;8.97;;
18449;SDS011;9354;50.194;7.690;2024-01-07T04:58:20;21.97;;;8.23;;
18449;SDS011;9354;50.194;7.690;2024-01-07T05:00:48;23.00;;;8.50;;
18449;SDS011;9354;50.194;7.690;2024-01-07T05:03:16;21.57;;;8.60;;
18449;SDS011;9354;50.194;7.690;2024-01-07T05:05:43;21.27;;;8.90;;
18449;SDS011;9354;50.194;7.690;2024-01-07T05:08:11;22.03;;;8.87;;
18449;SDS011;9354;50.194;7.690;2024-01-07T05:10:38;17.07;;;7.13;;
18449;SDS011;9354;50.194;7.690;2024-01-07T05:13:05;23.37;;;7.97;;
18449;SDS011;9354;50.194;7.690;2024-01-07T05:15:33;20.63;;;7.70;;
18449;SDS011;9354;50.194;7.690;2024-01-07T05:18:02;19.17;;;7.90;;
18449;SDS011;9354;50.194;7.690;2024-01-07T05:20:33;20.43;;;7.47;;
18449;SDS011;9354;50.194;7.690;2024-01-07T05:23:00;16.20;;;6.87;;
18449;SDS011;9354;50.194;7.690;2024-01-07T05:25:28;16.37;;;7.10;;
18449;SDS011;9354;50.194;7.690;2024-01-07T05:27:55;14.63;;;6.40;;
18449;SDS011;9354;50.194;7.690;2024-01-07T05:30:23;17.93;;;6.47;;
18449;SDS011;9354;50.194;7.690;2024-01-07T05:32:50;14.07;;;5.90;;
18449;SDS011;9354;50.194;7.690;2024-01-07T05:35:19;16.50;;;6.70;;
18449;SDS011;9354;50.194;7.690;2024-01-07T05:37:46;14.27;;;6.17;;
18449;SDS011;9354;50.194;7.690;2024-01-07T05:40:14;14.40;;;5.73;;
18449;SDS011;9354;50.194;7.690;2024-01-07T05:42:41;13.03;;;5.77;;
18449;SDS011;9354;50.194;7.690;2024-01-07T05:45:09;12.07;;;5.00;;
18449;SDS011;9354;50.194;7.690;2024-01-07T05:47:36;12.83;;;6.30;;
18449;SDS011;9354;50.194;7.690;2024-01-07T05:50:04;11.13;;;4.63;;
18449;SDS011;9354;50.194;7.690;2024-01-07T05:52:33;13.57;;;4.97;;
18449;SDS011;9354;50.194;7.690;2024-01-07T05:55:01;11.50;;;5.23;;
18449;SDS011;9354;50.194;7.690;2024-01-07T05:57:28;10.57;;;4.53;;
18449;SDS011;9354;50.194;7.690;2024-01-07T05:59:55;10.17;;;4.30;;
18449;SDS011;9354;50.194;7.690;2024-01-07T06:02:23;11.70;;;5.10;;
18449;SDS011;9354;50.194;7.690;2024-01-07T06:04:50;9.90;;;4.90;;
18449;SDS011;9354;50.194;7.690;2024-01-07T06:07:18;11.07;;;5.10;;
18449;SDS011;9354;50.194;7.690;2024-01-07T06:09:46;8.67;;;4.47;;
18449;SDS011;9354;50.194;7.690;2024-01-07T06:12:14;9.23;;;4.27;;
18449;SDS011;9354;50.194;7.690;2024-01-07T06:14:41;11.13;;;5.00;;
18449;SDS011;9354;50.194;7.690;2024-01-07T06:17:08;10.07;;;4.93;;
18449;SDS011;9354;50.194;7.690;2024-01-07T06:19:36;10.23;;;4.37;;
18449;SDS011;9354;50.194;7.690;2024-01-07T06:22:03;9.70;;;4.80;;
18449;SDS011;9354;50.194;7.690;2024-01-07T06:24:31;26.50;;;10.60;;
18449;SDS011;9354;50.194;7.690;2024-01-07T06:27:00;12.57;;;5.87;;
18449;SDS011;9354;50.194;7.690;2024-01-07T06:29:29;10.67;;;4.97;;
18449;SDS011;9354;50.194;7.690;2024-01-07T06:31:56;8.83;;;4.47;;
18449;SDS011;9354;50.194;7.690;2024-01-07T06:34:24;12.47;;;5.53;;
18449;SDS011;9354;50.194;7.690;2024-01-07T06:36:51;10.50;;;5.10;;
18449;SDS011;9354;50.194;7.690;2024-01-07T06:39:19;16.27;;;7.60;;
18449;SDS011;9354;50.194;7.690;2024-01-07T06:41:46;13.83;;;5.93;;
18449;SDS011;9354;50.194;7.690;2024-01-07T06:44:15;11.53;;;4.83;;
18449;SDS011;9354;50.194;7.690;2024-01-07T06:46:42;14.80;;;7.27;;
18449;SDS011;9354;50.194;7.690;2024-01-07T06:49:10;14.87;;;6.33;;
18449;SDS011;9354;50.194;7.690;2024-01-07T06:51:37;7.57;;;4.17;;
18449;SDS011;9354;50.194;7.690;2024-01-07T06:54:05;7.50;;;4.13;;
18449;SDS011;9354;50.194;7.690;2024-01-07T06:56:32;9.57;;;4.47;;
18449;SDS011;9354;50.194;7.690;2024-01-07T06:58:59;8.47;;;4.17;;
18449;SDS011;9354;50.194;7.690;2024-01-07T07:01:28;8.50;;;4.40;;
18449;SDS011;9354;50.194;7.690;2024-01-07T07:03:56;9.80;;;4.60;;
18449;SDS011;9354;50.194;7.690;2024-01-07T07:06:23;9.37;;;4.43;;
18449;SDS011;9354;50.194;7.690;2024-01-07T07:08:52;11.63;;;5.50;;
18449;SDS011;9354;50.194;7.690;2024-01-07T07:11:21;10.80;;;4.80;;
18449;SDS011;9354;50.194;7.690;2024-01-07T07:13:48;9.30;;;4.77;;
18449;SDS011;9354;50.194;7.690;2024-01-07T07:16:15;9.40;;;4.47;;
18449;SDS011;9354;50.194;7.690;2024-01-07T07:18:44;9.30;;;4.63;;
18449;SDS011;9354;50.194;7.690;2024-01-07T07:21:11;10.77;;;5.30;;
18449;SDS011;9354;50.194;7.690;2024-01-07T07:23:39;8.63;;;4.70;;
18449;SDS011;9354;50.194;7.690;2024-01-07T07:26:06;10.10;;;4.27;;
18449;SDS011;9354;50.194;7.690;2024-01-07T07:28:34;11.07;;;4.87;;
18449;SDS011;9354;50.194;7.690;2024-01-07T07:31:01;10.37;;;5.40;;
18449;SDS011;9354;50.194;7.690;2024-01-07T07:33:29;8.30;;;4.77;;
18449;SDS011;9354;50.194;7.690;2024-01-07T07:35:57;10.00;;;5.50;;
18449;SDS011;9354;50.194;7.690;2024-01-07T07:38:25;12.37;;;5.50;;
18449;SDS011;9354;50.194;7.690;2024-01-07T07:40:52;9.27;;;4.60;;
18449;SDS011;9354;50.194;7.690;2024-01-07T07:43:20;23.93;;;6.47;;
18449;SDS011;9354;50.194;7.690;2024-01-07T07:45:47;12.23;;;5.50;;
18449;SDS011;9354;50.194;7.690;2024-01-07T07:48:14;11.27;;;5.23;;
18449;SDS011;9354;50.194;7.690;2024-01-07T07:50:42;12.03;;;6.77;;
18449;SDS011;9354;50.194;7.690;2024-01-07T07:53:11;15.33;;;7.20;;
18449;SDS011;9354;50.194;7.690;2024-01-07T07:55:38;9.13;;;4.80;;
18449;SDS011;9354;50.194;7.690;2024-01-07T07:58:06;10.63;;;5.57;;
18449;SDS011;9354;50.194;7.690;2024-01-07T08:00:33;10.10;;;5.17;;
18449;SDS011;9354;50.194;7.690;2024-01-07T08:03:01;11.63;;;5.90;;
18449;SDS011;9354;50.194;7.690;2024-01-07T08:05:28;10.63;;;5.47;;
18449;SDS011;9354;50.194;7.690;2024-01-07T08:07:56;9.50;;;5.17;;
18449;SDS011;9354;50.194;7.690;2024-01-07T08:10:25;10.33;;;5.20;;
18449;SDS011;9354;50.194;7.690;2024-01-07T08:12:54;10.23;;;5.67;;
18449;SDS011;9354;50.194;7.690;2024-01-07T08:15:21;11.17;;;5.57;;
18449;SDS011;9354;50.194;7.690;2024-01-07T08:17:48;9.20;;;5.17;;
18449;SDS011;9354;50.194;7.690;2024-01-07T08:20:17;14.67;;;6.30;;
18449;SDS011;9354;50.194;7.690;2024-01-07T08:22:45;11.93;;;5.87;;
18449;SDS011;9354;50.194;7.690;2024-01-07T08:25:12;12.87;;;6.30;;
18449;SDS011;9354;50.194;7.690;2024-01-07T08:27:41;10.87;;;5.70;;
18449;SDS011;9354;50.194;7.690;2024-01-07T08:30:09;12.40;;;6.00;;
18449;SDS011;9354;50.194;7.690;2024-01-07T08:32:39;11.60;;;5.90;;
18449;SDS011;9354;50.194;7.690;2024-01-07T08:35:06;12.07;;;6.10;;
18449;SDS011;9354;50.194;7.690;2024-01-07T08:37:34;12.07;;;6.07;;
18449;SDS011;9354;50.194;7.690;2024-01-07T08:40:02;14.57;;;6.37;;
18449;SDS011;9354;50.194;7.690;2024-01-07T08:42:30;12.93;;;6.33;;
18449;SDS011;9354;50.194;7.690;2024-01-07T08:44:58;10.07;;;5.57;;
18449;SDS011;9354;50.194;7.690;2024-01-07T08:47:26;13.40;;;6.30;;
18449;SDS011;9354;50.194;7.690;2024-01-07T08:49:54;14.50;;;6.47;;
18449;SDS011;9354;50.194;7.690;2024-01-07T08:52:21;12.43;;;6.47;;
18449;SDS011;9354;50.194;7.690;2024-01-07T08:54:48;13.83;;;6.50;;
18449;SDS011;9354;50.194;7.690;2024-01-07T08:57:16;13.67;;;6.60;;
18449;SDS011;9354;50.194;7.690;2024-01-07T08:59:43;17.00;;;6.73;;
18449;SDS011;9354;50.194;7.690;2024-01-07T09:02:12;16.20;;;7.33;;
18449;SDS011;9354;50.194;7.690;2024-01-07T09:04:40;13.97;;;6.73;;
18449;SDS011;9354;50.194;7.690;2024-01-07T09:07:07;11.33;;;6.10;;
18449;SDS011;9354;50.194;7.690;2024-01-07T09:09:35;13.87;;;6.87;;
18449;SDS011;9354;50.194;7.690;2024-01-07T09:12:03;13.33;;;6.77;;
18449;SDS011;9354;50.194;7.690;2024-01-07T09:14:30;13.43;;;6.80;;
18449;SDS011;9354;50.194;7.690;2024-01-07T09:16:58;14.83;;;7.07;;
18449;SDS011;9354;50.194;7.690;2024-01-07T09:19:27;16.60;;;7.70;;
18449;SDS011;9354;50.194;7.690;2024-01-07T09:21:55;15.70;;;8.90;;
18449;SDS011;9354;50.194;7.690;2024-01-07T09:24:23;16.13;;;7.67;;
18449;SDS011;9354;50.194;7.690;2024-01-07T09:26:51;20.60;;;8.70;;
18449;SDS011;9354;50.194;7.690;2024-01-07T09:29:18;14.00;;;7.90;;
18449;SDS011;9354;50.194;7.690;2024-01-07T09:31:48;17.43;;;8.53;;
18449;SDS011;9354;50.194;7.690;2024-01-07T09:34:15;17.50;;;8.30;;
18449;SDS011;9354;50.194;7.690;2024-01-07T09:36:45;22.30;;;8.70;;
18449;SDS011;9354;50.194;7.690;2024-01-07T09:39:12;17.47;;;8.43;;
18449;SDS011;9354;50.194;7.690;2024-01-07T09:41:39;18.00;;;9.33;;
18449;SDS011;9354;50.194;7.690;2024-01-07T09:44:07;18.90;;;9.57;;
18449;SDS011;9354;50.194;7.690;2024-01-07T09:46:36;19.53;;;9.50;;
18449;SDS011;9354;50.194;7.690;2024-01-07T09:49:06;17.27;;;8.53;;
18449;SDS011;9354;50.194;7.690;2024-01-07T09:51:34;19.07;;;9.33;;
18449;SDS011;9354;50.194;7.690;2024-01-07T09:54:04;19.73;;;9.80;;
18449;SDS011;9354;50.194;7.690;2024-01-07T09:56:38;17.83;;;8.37;;
18449;SDS011;9354;50.194;7.690;2024-01-07T09:59:09;15.90;;;8.10;;
18449;SDS011;9354;50.194;7.690;2024-01-07T10:01:37;19.60;;;8.80;;
18449;SDS011;9354;50.194;7.690;2024-01-07T10:04:05;17.57;;;8.77;;
18449;SDS011;9354;50.194;7.690;2024-01-07T10:06:33;19.37;;;9.33;;
18449;SDS011;9354;50.194;7.690;2024-01-07T10:09:00;18.17;;;9.57;;
18449;SDS011;9354;50.194;7.690;2024-01-07T10:11:29;18.47;;;9.10;;
18449;SDS011;9354;50.194;7.690;2024-01-07T10:13:56;18.23;;;8.77;;
18449;SDS011;9354;50.194;7.690;2024-01-07T10:16:24;18.83;;;9.20;;
18449;SDS011;9354;50.194;7.690;2024-01-07T10:18:51;15.20;;;6.80;;
18449;SDS011;9354;50.194;7.690;2024-01-07T10:21:18;14.10;;;6.57;;
18449;SDS011;9354;50.194;7.690;2024-01-07T10:23:46;14.13;;;6.93;;
18449;SDS011;9354;50.194;7.690;2024-01-07T10:26:13;14.67;;;7.43;;
18449;SDS011;9354;50.194;7.690;2024-01-07T10:28:42;15.97;;;6.87;;
18449;SDS011;9354;50.194;7.690;2024-01-07T10:31:10;12.20;;;6.23;;
18449;SDS011;9354;50.194;7.690;2024-01-07T10:33:38;13.90;;;6.70;;
18449;SDS011;9354;50.194;7.690;2024-01-07T10:36:08;12.60;;;6.47;;
18449;SDS011;9354;50.194;7.690;2024-01-07T10:38:36;13.47;;;6.40;;
18449;SDS011;9354;50.194;7.690;2024-01-07T10:41:04;13.60;;;6.73;;
18449;SDS011;9354;50.194;7.690;2024-01-07T10:43:34;13.27;;;6.23;;
18449;SDS011;9354;50.194;7.690;2024-01-07T10:46:07;15.60;;;7.60;;
18449;SDS011;9354;50.194;7.690;2024-01-07T10:48:38;18.03;;;8.23;;
18449;SDS011;9354;50.194;7.690;2024-01-07T10:51:09;17.77;;;7.70;;
18449;SDS011;9354;50.194;7.690;2024-01-07T10:53:38;17.57;;;7.83;;
18449;SDS011;9354;50.194;7.690;2024-01-07T10:56:10;16.97;;;7.73;;
18449;SDS011;9354;50.194;7.690;2024-01-07T10:58:39;15.57;;;7.43;;
18449;SDS011;9354;50.194;7.690;2024-01-07T11:01:09;16.50;;;7.33;;
18449;SDS011;9354;50.194;7.690;2024-01-07T11:03:38;15.50;;;8.23;;
18449;SDS011;9354;50.194;7.690;2024-01-07T11:06:15;19.47;;;8.97;;
18449;SDS011;9354;50.194;7.690;2024-01-07T11:08:51;17.53;;;8.30;;
18449;SDS011;9354;50.194;7.690;2024-01-07T11:11:23;19.10;;;8.67;;
18449;SDS011;9354;50.194;7.690;2024-01-07T11:13:53;20.87;;;8.87;;
18449;SDS011;9354;50.194;7.690;2024-01-07T11:19:15;18.03;;;8.60;;
18449;SDS011;9354;50.194;7.690;2024-01-07T11:21:48;20.77;;;8.43;;
18449;SDS011;9354;50.194;7.690;2024-01-07T11:27:08;15.87;;;7.60;;
18449;SDS011;9354;50.194;7.690;2024-01-07T11:29:35;15.50;;;8.03;;
18449;SDS011;9354;50.194;7.690;2024-01-07T11:32:05;14.67;;;7.40;;
18449;SDS011;9354;50.194;7.690;2024-01-07T11:34:38;11.50;;;6.50;;
18449;SDS011;9354;50.194;7.690;2024-01-07T11:37:07;11.93;;;6.10;;
18449;SDS011;9354;50.194;7.690;2024-01-07T11:39:36;13.23;;;6.67;;
18449;SDS011;9354;50.194;7.690;2024-01-07T11:42:04;11.57;;;6.20;;
18449;SDS011;9354;50.194;7.690;2024-01-07T11:44:33;15.33;;;6.90;;
18449;SDS011;9354;50.194;7.690;2024-01-07T11:47:03;11.47;;;6.20;;
18449;SDS011;9354;50.194;7.690;2024-01-07T11:49:31;15.40;;;6.53;;
18449;SDS011;9354;50.194;7.690;2024-01-07T11:51:59;14.07;;;6.67;;
18449;SDS011;9354;50.194;7.690;2024-01-07T11:54:28;15.70;;;6.97;;
18449;SDS011;9354;50.194;7.690;2024-01-07T11:56:56;14.17;;;7.13;;
18449;SDS011;9354;50.194;7.690;2024-01-07T11:59:23;13.30;;;6.53;;
18449;SDS011;9354;50.194;7.690;2024-01-07T12:01:51;12.63;;;6.37;;
18449;SDS011;9354;50.194;7.690;2024-01-07T12:04:22;10.70;;;5.43;;
18449;SDS011;9354;50.194;7.690;2024-01-07T12:06:49;10.10;;;5.50;;
18449;SDS011;9354;50.194;7.690;2024-01-07T12:09:17;10.53;;;5.47;;
18449;SDS011;9354;50.194;7.690;2024-01-07T12:11:44;10.83;;;5.60;;
18449;SDS011;9354;50.194;7.690;2024-01-07T12:14:12;10.50;;;5.20;;
18449;SDS011;9354;50.194;7.690;2024-01-07T12:16:40;11.27;;;5.03;;
18449;SDS011;9354;50.194;7.690;2024-01-07T12:19:08;10.83;;;5.40;;
18449;SDS011;9354;50.194;7.690;2024-01-07T12:21:37;9.97;;;5.63;;
18449;SDS011;9354;50.194;7.690;2024-01-07T12:24:05;12.83;;;6.37;;
18449;SDS011;9354;50.194;7.690;2024-01-07T12:26:33;10.97;;;6.03;;
18449;SDS011;9354;50.194;7.690;2024-01-07T12:29:02;11.23;;;6.13;;
18449;SDS011;9354;50.194;7.690;2024-01-07T12:31:32;10.73;;;5.60;;
18449;SDS011;9354;50.194;7.690;2024-01-07T12:34:01;12.70;;;6.63;;
18449;SDS011;9354;50.194;7.690;2024-01-07T12:36:29;9.70;;;5.47;;
18449;SDS011;9354;50.194;7.690;2024-01-07T12:38:58;10.47;;;5.63;;
18449;SDS011;9354;50.194;7.690;2024-01-07T12:41:26;12.53;;;6.07;;
18449;SDS011;9354;50.194;7.690;2024-01-07T12:43:54;11.27;;;5.93;;
18449;SDS011;9354;50.194;7.690;2024-01-07T12:46:22;11.73;;;5.73;;
18449;SDS011;9354;50.194;7.690;2024-01-07T12:48:49;11.50;;;5.77;;
18449;SDS011;9354;50.194;7.690;2024-01-07T12:51:19;12.60;;;5.87;;
18449;SDS011;9354;50.194;7.690;2024-01-07T12:53:46;13.30;;;6.40;;
18449;SDS011;9354;50.194;7.690;2024-01-07T12:56:15;10.67;;;5.47;;
18449;SDS011;9354;50.194;7.690;2024-01-07T12:58:43;11.20;;;6.00;;
18449;SDS011;9354;50.194;7.690;2024-01-07T13:01:10;12.40;;;5.90;;
18449;SDS011;9354;50.194;7.690;2024-01-07T13:03:38;10.07;;;5.77;;
18449;SDS011;9354;50.194;7.690;2024-01-07T13:06:05;12.10;;;6.50;;
18449;SDS011;9354;50.194;7.690;2024-01-07T13:08:33;11.70;;;6.43;;
18449;SDS011;9354;50.194;7.690;2024-01-07T13:11:00;13.37;;;7.03;;
18449;SDS011;9354;50.194;7.690;2024-01-07T13:13:29;12.33;;;6.60;;
18449;SDS011;9354;50.194;7.690;2024-01-07T13:15:57;13.43;;;7.07;;
18449;SDS011;9354;50.194;7.690;2024-01-07T13:18:27;15.73;;;6.83;;
18449;SDS011;9354;50.194;7.690;2024-01-07T13:20:54;13.87;;;7.40;;
18449;SDS011;9354;50.194;7.690;2024-01-07T13:23:22;13.43;;;6.43;;
18449;SDS011;9354;50.194;7.690;2024-01-07T13:25:49;15.00;;;6.67;;
18449;SDS011;9354;50.194;7.690;2024-01-07T13:28:16;15.80;;;7.03;;
18449;SDS011;9354;50.194;7.690;2024-01-07T13:30:46;12.37;;;6.17;;
18449;SDS011;9354;50.194;7.690;2024-01-07T13:33:14;11.77;;;5.63;;
18449;SDS011;9354;50.194;7.690;2024-01-07T13:35:44;16.20;;;6.60;;
18449;SDS011;9354;50.194;7.690;2024-01-07T13:38:12;15.23;;;7.07;;
18449;SDS011;9354;50.194;7.690;2024-01-07T13:40:39;17.40;;;7.00;;
18449;SDS011;9354;50.194;7.690;2024-01-07T13:43:07;16.60;;;7.30;;
18449;SDS011;9354;50.194;7.690;2024-01-07T13:45:34;12.07;;;5.90;;
18449;SDS011;9354;50.194;7.690;2024-01-07T13:48:03;16.50;;;6.83;;
18449;SDS011;9354;50.194;7.690;2024-01-07T13:50:32;12.27;;;6.20;;
18449;SDS011;9354;50.194;7.690;2024-01-07T13:53:00;12.77;;;5.33;;
18449;SDS011;9354;50.194;7.690;2024-01-07T13:55:28;15.60;;;6.27;;
18449;SDS011;9354;50.194;7.690;2024-01-07T13:57:55;13.03;;;6.13;;
18449;SDS011;9354;50.194;7.690;2024-01-07T14:00:23;10.10;;;5.40;;
18449;SDS011;9354;50.194;7.690;2024-01-07T14:02:50;13.30;;;5.87;;
18449;SDS011;9354;50.194;7.690;2024-01-07T14:05:19;10.70;;;5.57;;
18449;SDS011;9354;50.194;7.690;2024-01-07T14:07:46;12.73;;;5.97;;
18449;SDS011;9354;50.194;7.690;2024-01-07T14:10:14;10.33;;;5.53;;
18449;SDS011;9354;50.194;7.690;2024-01-07T14:12:41;13.10;;;5.73;;
18449;SDS011;9354;50.194;7.690;2024-01-07T14:15:08;11.30;;;5.20;;
18449;SDS011;9354;50.194;7.690;2024-01-07T14:17:36;11.93;;;5.97;;
18449;SDS011;9354;50.194;7.690;2024-01-07T14:20:05;11.67;;;4.60;;
18449;SDS011;9354;50.194;7.690;2024-01-07T14:22:35;12.37;;;5.57;;
18449;SDS011;9354;50.194;7.690;2024-01-07T14:25:03;13.27;;;5.47;;
18449;SDS011;9354;50.194;7.690;2024-01-07T14:27:31;13.13;;;5.70;;
18449;SDS011;9354;50.194;7.690;2024-01-07T14:29:59;11.73;;;5.47;;
18449;SDS011;9354;50.194;7.690;2024-01-07T14:32:26;8.90;;;4.80;;
18449;SDS011;9354;50.194;7.690;2024-01-07T14:34:53;13.13;;;5.60;;
18449;SDS011;9354;50.194;7.690;2024-01-07T14:37:21;12.33;;;5.30;;
18449;SDS011;9354;50.194;7.690;2024-01-07T14:39:50;10.77;;;5.63;;
18449;SDS011;9354;50.194;7.690;2024-01-07T14:42:17;10.03;;;5.03;;
18449;SDS011;9354;50.194;7.690;2024-01-07T14:44:45;11.03;;;5.10;;
18449;SDS011;9354;50.194;7.690;2024-01-07T14:47:12;10.00;;;5.67;;
18449;SDS011;9354;50.194;7.690;2024-01-07T14:49:40;13.70;;;6.20;;
18449;SDS011;9354;50.194;7.690;2024-01-07T14:52:08;10.17;;;4.43;;
18449;SDS011;9354;50.194;7.690;2024-01-07T14:54:35;8.80;;;4.67;;
18449;SDS011;9354;50.194;7.690;2024-01-07T14:57:04;11.37;;;5.10;;
18449;SDS011;9354;50.194;7.690;2024-01-07T14:59:34;8.23;;;4.57;;